Ufa, Russia
Current Conditions -  °F | °C
As of 9:00 PM on Sunday 23 Nov 2014 (Local Time) from UWUU Reporting Station
Scattered Clouds Scattered Clouds  
Wind Chill: -5°   Ceiling: Unl
Heat Index: 10°   Visibility: 6mi
Dew Point:   Wind: 13mph
Humidity: 73%   Direction: 20°NNE
Pressure: 30.42"   Gusts: 22mph
Location:  54.78°N, 56.04°E
Report Text: UWUU 231600Z 02006G10MPS 9999 SCT033 M12/M16 Q1030 82821050NOSIG RMK QFE761/1015
Loading
Personal Weather Stations






























Interactive Weather Map New forecast layout! Learn more

10-Day Weather Forecast

Advertisements
Track Severe Weather on mobile